Downs, Illinois
Current Conditions -  °F | °C
As of 11:56 PM on Monday 20 Oct 2014 (Local Time) from KBMI Reporting Station
Clear Clear  
Wind Chill: 44°   Ceiling: Unl
Heat Index: 47°   Visibility: 10mi
Dew Point: 43°   Wind: 6mph
Humidity: 86%   Direction: 30°NNE
Pressure: 30.02"   Gusts: NA
Location:  40.4°N, 88.87°W
Report Text: KBMI 210456Z AUTO 03005KT 10SM CLR 08/06 A3002 RMK AO2 T00830061 SLP164
Loading
Personal Weather Stations






























Interactive Weather Map
Tropical Storm Tracking
New forecast layout! Learn more

10-Day Weather Forecast

Advertisements
Track Severe Weather on mobile